createdAt,value
2019-02-26T00:00:42.273Z,95.10
2019-02-26T00:03:07.959Z,95.00
2019-02-26T00:05:35.488Z,95.20
2019-02-26T00:08:02.984Z,95.50
2019-02-26T00:10:31.480Z,95.70
2019-02-26T00:12:59.816Z,95.70
2019-02-26T00:15:29.456Z,95.90
2019-02-26T00:17:56.615Z,95.90
2019-02-26T00:20:24.144Z,95.90
2019-02-26T00:22:53.553Z,95.90
2019-02-26T00:25:20.985Z,96.10
2019-02-26T00:27:49.555Z,96.10
2019-02-26T00:30:18.668Z,96.30
2019-02-26T00:32:46.213Z,96.10
2019-02-26T00:35:13.698Z,95.90
2019-02-26T00:37:41.237Z,96.00
2019-02-26T00:40:10.061Z,96.00
2019-02-26T00:42:38.077Z,96.20
2019-02-26T00:45:07.856Z,96.20
2019-02-26T00:47:36.293Z,96.20
2019-02-26T00:50:05.544Z,95.90
2019-02-26T00:52:34.827Z,95.90
2019-02-26T00:55:05.415Z,96.00
2019-02-26T00:57:33.542Z,95.90
2019-02-26T01:00:03.394Z,96.40
2019-02-26T01:02:31.824Z,96.60
2019-02-26T01:04:59.430Z,96.90
2019-02-26T01:07:28.204Z,97.00
2019-02-26T01:09:56.947Z,96.80
2019-02-26T01:12:25.002Z,96.80
2019-02-26T01:14:52.485Z,96.70
2019-02-26T01:17:19.955Z,96.50
2019-02-26T01:19:47.521Z,96.70
2019-02-26T01:22:15.100Z,97.00
2019-02-26T01:24:42.586Z,97.00
2019-02-26T01:27:10.172Z,97.00
2019-02-26T01:29:37.650Z,97.30
2019-02-26T01:32:08.889Z,96.50
2019-02-26T01:34:34.537Z,96.60
2019-02-26T01:37:03.160Z,96.60
2019-02-26T01:39:31.355Z,96.60
2019-02-26T01:41:58.907Z,96.70
2019-02-26T01:44:30.175Z,96.80
2019-02-26T01:46:57.775Z,96.90
2019-02-26T01:49:26.633Z,97.00
2019-02-26T01:51:54.344Z,97.20
2019-02-26T01:54:21.865Z,97.20
2019-02-26T01:56:52.669Z,97.30
2019-02-26T01:59:19.170Z,97.10
2019-02-26T02:01:48.905Z,97.00
2019-02-26T02:04:17.143Z,97.20
2019-02-26T02:06:45.630Z,97.40
2019-02-26T02:09:13.987Z,97.30
2019-02-26T02:11:42.405Z,97.40
2019-02-26T02:14:10.357Z,97.60
2019-02-26T02:16:39.306Z,97.50
2019-02-26T02:19:06.836Z,97.60
2019-02-26T02:21:35.711Z,97.50
2019-02-26T02:24:03.322Z,97.80
2019-02-26T02:26:30.855Z,97.70
2019-02-26T02:28:58.365Z,97.60
2019-02-26T02:31:30.286Z,97.70
2019-02-26T02:33:55.157Z,97.70
2019-02-26T02:36:23.669Z,97.70
2019-02-26T02:38:52.011Z,97.50
2019-02-26T02:41:19.559Z,97.70
2019-02-26T02:43:47.038Z,97.60
2019-02-26T02:46:14.527Z,97.50
2019-02-26T02:48:42.329Z,97.60
2019-02-26T02:51:13.172Z,97.70
2019-02-26T02:53:39.135Z,97.70
2019-02-26T02:56:09.842Z,97.80
2019-02-26T02:58:38.429Z,98.20
2019-02-26T03:01:05.555Z,98.20
2019-02-26T03:03:33.035Z,98.00
2019-02-26T03:06:01.797Z,98.20
2019-02-26T03:08:30.115Z,98.10
2019-02-26T03:10:57.584Z,98.30
2019-02-26T03:13:26.018Z,98.30
2019-02-26T03:15:56.631Z,98.30
2019-02-26T03:18:24.060Z,98.10
2019-02-26T03:21:10.981Z,98.40
2019-02-26T03:23:41.256Z,98.90
2019-02-26T03:26:10.048Z,99.50
2019-02-26T03:28:39.506Z,99.60
2019-02-26T03:31:06.595Z,99.40
2019-02-26T03:33:34.243Z,99.40
2019-02-26T03:36:05.460Z,99.50
2019-02-26T03:38:31.100Z,98.90
2019-02-26T03:41:01.107Z,99.00
2019-02-26T03:43:28.703Z,99.30
2019-02-26T03:45:57.274Z,98.90
2019-02-26T03:48:24.810Z,99.10
2019-02-26T03:50:52.374Z,98.90
2019-02-26T03:53:19.932Z,98.90
2019-02-26T03:55:47.418Z,98.90
2019-02-26T03:58:15.150Z,99.00
2019-02-26T04:00:43.940Z,99.00
2019-02-26T04:03:14.624Z,99.10
2019-02-26T04:05:41.428Z,99.30
2019-02-26T04:08:09.245Z,99.60
2019-02-26T04:10:37.008Z,99.50
2019-02-26T04:13:04.440Z,99.70
2019-02-26T04:15:33.470Z,99.80
2019-02-26T04:18:01.507Z,99.70
2019-02-26T04:20:29.098Z,99.50
2019-02-26T04:22:57.039Z,99.50
2019-02-26T04:25:57.615Z,99.50
2019-02-26T04:28:33.513Z,99.90
2019-02-26T04:31:35.552Z,99.80
2019-02-26T04:34:42.728Z,99.70
2019-02-26T04:37:47.112Z,99.70
2019-02-26T04:41:12.605Z,99.80
2019-02-26T04:44:08.060Z,99.60
2019-02-26T04:47:15.107Z,99.90
2019-02-26T04:49:43.176Z,99.90
2019-02-26T04:52:14.237Z,99.80
2019-02-26T04:54:40.388Z,99.90
2019-02-26T04:57:07.889Z,99.80
2019-02-26T04:59:37.898Z,99.90
2019-02-26T05:02:04.729Z,99.90
2019-02-26T05:04:34.106Z,99.90
2019-02-26T05:07:04.422Z,99.90
2019-02-26T05:09:33.341Z,99.90
2019-02-26T05:12:00.466Z,99.90
2019-02-26T05:14:28.319Z,99.90
2019-02-26T05:16:55.974Z,99.90
2019-02-26T05:19:24.394Z,99.90
2019-02-26T05:21:53.462Z,99.90
2019-02-26T05:24:21.834Z,99.90
2019-02-26T05:26:50.655Z,99.90
2019-02-26T05:29:18.361Z,99.90
2019-02-26T05:31:45.793Z,99.90
2019-02-26T05:34:18.167Z,99.90
2019-02-26T05:36:46.170Z,99.90
2019-02-26T05:39:14.619Z,99.90
2019-02-26T05:41:43.699Z,99.90
2019-02-26T05:44:11.264Z,99.90
2019-02-26T05:46:38.791Z,99.90
2019-02-26T05:49:09.708Z,99.90
2019-02-26T05:51:38.065Z,99.90
2019-02-26T05:54:07.756Z,99.90
2019-02-26T05:56:37.008Z,99.90
2019-02-26T05:59:06.788Z,99.90
2019-02-26T06:01:33.157Z,99.90
2019-02-26T06:04:00.652Z,99.90
2019-02-26T06:06:28.101Z,99.90
2019-02-26T06:08:57.429Z,99.90
2019-02-26T06:11:28.345Z,99.90
2019-02-26T06:13:56.299Z,99.90
2019-02-26T06:16:24.381Z,99.90
2019-02-26T06:18:54.447Z,99.90
2019-02-26T06:21:23.597Z,99.90
2019-02-26T06:23:51.730Z,99.90
2019-02-26T06:26:19.449Z,99.90
2019-02-26T06:28:52.923Z,99.90
2019-02-26T06:31:22.208Z,99.90
2019-02-26T06:33:50.697Z,99.90
2019-02-26T06:36:19.214Z,99.90
2019-02-26T06:38:49.710Z,99.90
2019-02-26T06:41:16.951Z,99.90
2019-02-26T06:43:47.715Z,99.90
2019-02-26T06:46:14.137Z,99.90
2019-02-26T06:48:41.596Z,99.80
2019-02-26T06:51:09.054Z,99.70
2019-02-26T06:53:36.520Z,99.80
2019-02-26T06:56:04.038Z,99.80
2019-02-26T06:58:31.515Z,99.70
2019-02-26T07:00:59.323Z,99.70
2019-02-26T07:03:26.784Z,99.70
2019-02-26T07:05:54.259Z,99.70
2019-02-26T07:08:23.677Z,99.60
2019-02-26T07:10:51.065Z,99.40
2019-02-26T07:13:18.482Z,99.50
2019-02-26T07:15:46.011Z,99.60
2019-02-26T07:18:16.945Z,99.40
2019-02-26T07:20:46.653Z,99.40
2019-02-26T07:23:12.926Z,99.10
2019-02-26T07:25:43.981Z,98.90
2019-02-26T07:28:10.847Z,98.90
2019-02-26T07:30:39.891Z,98.80
2019-02-26T07:33:09.846Z,98.60
2019-02-26T07:35:37.404Z,98.40
2019-02-26T07:38:06.495Z,98.20
2019-02-26T07:40:35.932Z,98.10
2019-02-26T07:43:06.998Z,97.90
2019-02-26T07:45:32.846Z,97.70
2019-02-26T07:48:01.010Z,97.60
2019-02-26T07:50:31.269Z,97.80
2019-02-26T07:52:59.410Z,97.30
2019-02-26T07:55:27.664Z,97.30
2019-02-26T07:57:55.312Z,97.20
2019-02-26T08:00:23.191Z,97.10
2019-02-26T08:02:52.028Z,96.70
2019-02-26T08:05:21.209Z,96.50
2019-02-26T08:07:51.227Z,96.40
2019-02-26T08:10:19.546Z,96.00
2019-02-26T08:12:47.212Z,95.90
2019-02-26T08:15:15.726Z,95.70
2019-02-26T08:17:45.575Z,95.40
2019-02-26T08:20:14.910Z,95.20
2019-02-26T08:22:42.513Z,94.90
2019-02-26T08:25:10.307Z,94.70
2019-02-26T08:27:37.993Z,94.20
2019-02-26T08:30:08.584Z,94.20
2019-02-26T08:32:36.155Z,93.90
2019-02-26T08:35:04.163Z,93.50
2019-02-26T08:37:31.667Z,93.50
2019-02-26T08:39:59.188Z,93.10
2019-02-26T08:42:26.669Z,92.90
2019-02-26T08:44:55.857Z,92.40
2019-02-26T08:47:23.572Z,92.10
2019-02-26T08:49:51.053Z,91.70
2019-02-26T08:52:21.507Z,91.30
2019-02-26T08:54:47.866Z,90.70
2019-02-26T08:57:15.344Z,90.30
2019-02-26T08:59:45.273Z,89.80
2019-02-26T09:02:12.129Z,88.60
2019-02-26T09:04:40.718Z,86.70
2019-02-26T09:07:08.867Z,85.70
2019-02-26T09:09:36.346Z,85.10
2019-02-26T09:12:03.797Z,83.40
2019-02-26T09:14:34.389Z,81.90
2019-02-26T09:17:02.074Z,80.30
2019-02-26T09:19:31.096Z,78.20
2019-02-26T09:21:59.494Z,77.10
2019-02-26T09:24:27.325Z,74.80
2019-02-26T09:26:57.230Z,74.50
2019-02-26T09:29:24.080Z,72.20
2019-02-26T09:31:51.736Z,71.20
2019-02-26T09:34:19.233Z,70.60
2019-02-26T09:36:50.634Z,68.40
2019-02-26T09:39:15.983Z,68.20
2019-02-26T09:41:45.541Z,66.50
2019-02-26T09:44:12.776Z,65.90
2019-02-26T09:46:41.951Z,66.00
2019-02-26T09:49:12.308Z,64.50
2019-02-26T09:51:39.970Z,65.20
2019-02-26T09:54:07.543Z,65.30
2019-02-26T09:56:35.026Z,65.00
2019-02-26T09:59:04.621Z,65.30
2019-02-26T10:01:33.690Z,61.50
2019-02-26T10:04:03.094Z,60.90
2019-02-26T10:06:30.397Z,60.10
2019-02-26T10:08:58.609Z,60.80
2019-02-26T10:11:28.030Z,61.10
2019-02-26T10:13:55.520Z,61.30
2019-02-26T10:16:23.898Z,61.30
2019-02-26T10:18:54.352Z,61.10
2019-02-26T10:21:21.581Z,60.10
2019-02-26T10:23:51.461Z,58.40
2019-02-26T10:26:18.355Z,58.50
2019-02-26T10:28:51.049Z,56.80
2019-02-26T10:31:15.419Z,56.80
2019-02-26T10:33:45.305Z,56.90
2019-02-26T10:36:15.398Z,57.00
2019-02-26T10:38:41.819Z,56.50
2019-02-26T10:41:09.293Z,56.90
2019-02-26T10:43:36.775Z,57.30
2019-02-26T10:46:04.255Z,54.80
2019-02-26T10:48:31.732Z,52.80
2019-02-26T10:50:59.218Z,51.90
2019-02-26T10:53:27.619Z,50.30
2019-02-26T10:55:55.071Z,49.10
2019-02-26T10:58:22.569Z,47.00
2019-02-26T11:00:55.519Z,46.70
2019-02-26T11:03:22.465Z,45.10
2019-02-26T11:05:52.148Z,47.20
2019-02-26T11:08:20.786Z,49.50
2019-02-26T11:10:50.236Z,47.50
2019-02-26T11:13:20.957Z,46.20
2019-02-26T11:15:48.867Z,45.60
2019-02-26T11:18:18.121Z,47.10
2019-02-26T11:20:49.703Z,46.20
2019-02-26T11:23:16.293Z,45.60
2019-02-26T11:25:43.760Z,44.80
2019-02-26T11:28:12.976Z,43.30
2019-02-26T11:30:40.809Z,44.50
2019-02-26T11:33:10.736Z,44.90
2019-02-26T11:35:39.692Z,43.20
2019-02-26T11:38:09.113Z,41.90
2019-02-26T11:40:36.191Z,42.00
2019-02-26T11:43:11.279Z,41.20
2019-02-26T11:45:35.191Z,41.40
2019-02-26T11:48:03.722Z,41.60
2019-02-26T11:50:31.692Z,40.80
2019-02-26T11:52:59.151Z,39.20
2019-02-26T11:55:29.200Z,38.30
2019-02-26T11:57:55.902Z,35.70
2019-02-26T12:00:33.849Z,36.10
2019-02-26T12:02:58.063Z,34.20
2019-02-26T12:05:31.453Z,33.40
2019-02-26T12:07:56.348Z,33.50
2019-02-26T12:10:27.109Z,33.50
2019-02-26T12:12:54.603Z,32.50
2019-02-26T12:15:23.163Z,32.50
2019-02-26T12:17:51.767Z,34.80
2019-02-26T12:20:21.890Z,32.00
2019-02-26T12:22:49.805Z,34.50
2019-02-26T12:25:18.852Z,33.20
2019-02-26T12:27:48.186Z,32.60
2019-02-26T12:30:37.656Z,31.60
2019-02-26T12:33:07.666Z,31.00
2019-02-26T12:35:38.009Z,31.90
2019-02-26T12:38:17.379Z,32.30
2019-02-26T12:40:37.919Z,31.40
2019-02-26T12:43:08.333Z,31.20
2019-02-26T12:45:38.700Z,30.20
2019-02-26T12:48:06.514Z,31.70
2019-02-26T12:50:36.749Z,32.60
2019-02-26T12:53:05.798Z,31.60
2019-02-26T12:55:35.869Z,30.80
2019-02-26T12:58:04.280Z,29.80
2019-02-26T13:00:34.951Z,29.70
2019-02-26T13:03:05.572Z,30.10
2019-02-26T13:05:35.312Z,29.50
2019-02-26T13:08:03.298Z,30.40
2019-02-26T13:10:31.288Z,31.00
2019-02-26T13:13:02.880Z,31.00
2019-02-26T13:15:28.668Z,30.80
2019-02-26T13:17:56.196Z,30.00
2019-02-26T13:20:23.739Z,29.60
2019-02-26T13:22:56.406Z,29.10
2019-02-26T13:25:34.543Z,28.70
2019-02-26T13:28:02.188Z,27.80
2019-02-26T13:30:30.084Z,27.50
2019-02-26T13:33:00.956Z,26.30
2019-02-26T13:35:27.279Z,26.50
2019-02-26T13:37:54.854Z,27.20
2019-02-26T13:40:22.439Z,27.50
2019-02-26T13:45:20.516Z,29.10
2019-02-26T13:47:48.592Z,29.30
2019-02-26T13:50:19.989Z,29.20
2019-02-26T13:52:47.577Z,29.40
2019-02-26T13:55:15.077Z,29.00
2019-02-26T13:57:42.564Z,28.40
2019-02-26T14:00:11.319Z,29.00
2019-02-26T14:02:38.882Z,31.60
2019-02-26T14:05:07.549Z,31.80
2019-02-26T14:07:37.684Z,31.30
2019-02-26T14:10:07.049Z,29.00
2019-02-26T14:12:35.551Z,28.00
2019-02-26T14:15:03.859Z,28.20
2019-02-26T14:17:31.809Z,28.00
2019-02-26T14:19:59.426Z,26.70
2019-02-26T14:22:27.019Z,27.10
2019-02-26T14:24:54.564Z,26.90
2019-02-26T14:27:22.083Z,26.30
2019-02-26T14:29:50.184Z,27.10
2019-02-26T14:32:17.735Z,26.50
2019-02-26T14:34:45.285Z,26.20
2019-02-26T14:37:12.847Z,26.20
2019-02-26T14:39:42.587Z,23.70
2019-02-26T14:42:10.469Z,23.50
2019-02-26T14:44:38.061Z,22.70
2019-02-26T14:47:06.148Z,24.10
2019-02-26T14:49:33.736Z,23.40
2019-02-26T14:52:01.255Z,23.50
2019-02-26T14:54:28.838Z,24.20
2019-02-26T14:56:56.411Z,24.30
2019-02-26T14:59:24.430Z,24.80
2019-02-26T15:01:51.958Z,24.40
2019-02-26T15:04:19.751Z,25.00
2019-02-26T15:06:47.295Z,25.10
2019-02-26T15:09:14.977Z,25.70
2019-02-26T15:11:42.719Z,25.50
2019-02-26T15:14:10.277Z,25.60
2019-02-26T15:16:37.806Z,25.50
2019-02-26T15:19:05.610Z,24.80
2019-02-26T15:21:33.170Z,25.40
2019-02-26T15:24:01.168Z,27.10
2019-02-26T15:26:28.759Z,28.60
2019-02-26T15:28:58.006Z,28.40
2019-02-26T15:31:26.423Z,26.60
2019-02-26T15:33:54.879Z,27.10
2019-02-26T15:36:23.024Z,27.00
2019-02-26T15:39:21.423Z,26.50
2019-02-26T15:41:50.555Z,27.70
2019-02-26T15:44:18.189Z,27.10
2019-02-26T15:46:46.152Z,28.10
2019-02-26T15:49:14.088Z,27.80
2019-02-26T15:51:41.623Z,28.50
2019-02-26T15:54:12.557Z,28.30
2019-02-26T15:56:40.930Z,29.20
2019-02-26T15:59:08.472Z,28.80
2019-02-26T16:01:36.044Z,28.40
2019-02-26T16:04:03.654Z,29.90
2019-02-26T16:06:31.333Z,29.50
2019-02-26T16:08:58.900Z,29.30
2019-02-26T16:11:27.157Z,29.70
2019-02-26T16:13:54.979Z,30.00
2019-02-26T16:16:22.523Z,30.20
2019-02-26T16:18:50.034Z,30.70
2019-02-26T16:21:19.292Z,31.30
2019-02-26T16:23:47.031Z,31.40
2019-02-26T16:26:14.750Z,31.80
2019-02-26T16:28:42.753Z,32.00
2019-02-26T16:31:10.290Z,33.40
2019-02-26T16:33:37.862Z,36.00
2019-02-26T16:36:05.453Z,37.30
2019-02-26T16:38:33.240Z,37.50
2019-02-26T16:41:02.819Z,38.40
2019-02-26T16:43:30.256Z,39.60
2019-02-26T16:45:57.799Z,40.50
2019-02-26T16:48:25.410Z,41.90
2019-02-26T16:50:52.940Z,43.80
2019-02-26T16:53:20.506Z,44.30
2019-02-26T16:55:49.137Z,45.80
2019-02-26T16:58:17.406Z,47.10
2019-02-26T17:00:46.525Z,48.50
2019-02-26T17:03:14.470Z,50.30
2019-02-26T17:05:42.154Z,51.50
2019-02-26T17:08:12.297Z,51.70
2019-02-26T17:10:40.094Z,52.90
2019-02-26T17:13:07.691Z,54.30
2019-02-26T17:15:35.587Z,55.20
2019-02-26T17:18:03.315Z,57.80
2019-02-26T17:20:30.814Z,58.60
2019-02-26T17:22:58.273Z,59.10
2019-02-26T17:25:28.474Z,59.80
2019-02-26T17:27:55.542Z,61.00
2019-02-26T17:30:23.879Z,61.80
2019-02-26T17:32:52.095Z,63.00
2019-02-26T17:35:19.569Z,62.80
2019-02-26T17:37:47.089Z,63.60
2019-02-26T17:40:15.617Z,63.40
2019-02-26T17:42:43.819Z,63.70
2019-02-26T17:45:13.576Z,62.30
2019-02-26T17:47:41.565Z,64.30
2019-02-26T17:50:12.595Z,63.90
2019-02-26T17:52:40.186Z,64.40
2019-02-26T17:55:09.497Z,65.20
2019-02-26T17:57:37.168Z,64.30
2019-02-26T18:00:06.968Z,65.10
2019-02-26T18:02:35.129Z,66.60
2019-02-26T18:05:02.803Z,68.00
2019-02-26T18:07:31.939Z,68.90
2019-02-26T18:09:59.890Z,70.30
2019-02-26T18:12:28.100Z,70.40
2019-02-26T18:14:56.179Z,71.70
2019-02-26T18:17:23.940Z,71.20
2019-02-26T18:19:52.177Z,71.50
2019-02-26T18:22:21.881Z,72.30
2019-02-26T18:24:49.417Z,71.90
2019-02-26T18:27:17.300Z,72.10
2019-02-26T18:29:44.865Z,72.60
2019-02-26T18:32:12.473Z,73.60
2019-02-26T18:34:40.014Z,73.10
2019-02-26T18:37:07.592Z,73.20
2019-02-26T18:39:35.061Z,73.20
2019-02-26T18:42:02.584Z,73.50
2019-02-26T18:44:30.105Z,73.60
2019-02-26T18:46:57.668Z,75.00
2019-02-26T18:49:25.508Z,74.70
2019-02-26T18:51:52.962Z,74.70
2019-02-26T18:54:21.105Z,76.40
2019-02-26T18:56:48.739Z,76.00
2019-02-26T18:59:16.288Z,75.00
2019-02-26T19:01:43.784Z,75.70
2019-02-26T19:04:11.303Z,76.60
2019-02-26T19:06:38.852Z,76.00
2019-02-26T19:09:07.152Z,76.20
2019-02-26T19:11:34.748Z,76.70
2019-02-26T19:14:02.552Z,77.50
2019-02-26T19:16:30.042Z,77.40
2019-02-26T19:18:58.207Z,79.00
2019-02-26T19:21:26.024Z,79.40
2019-02-26T19:23:53.592Z,80.70
2019-02-26T19:26:23.715Z,80.10
2019-02-26T19:28:51.428Z,80.10
2019-02-26T19:31:18.899Z,79.70
2019-02-26T19:33:46.466Z,79.90
2019-02-26T19:36:14.065Z,80.20
2019-02-26T19:38:41.656Z,80.00
2019-02-26T19:41:12.654Z,80.60
2019-02-26T19:43:40.316Z,80.90
2019-02-26T19:46:07.797Z,80.60
2019-02-26T19:48:35.291Z,80.70
2019-02-26T19:51:02.860Z,80.30
2019-02-26T19:53:34.435Z,80.40
2019-02-26T19:56:00.566Z,81.10
2019-02-26T19:58:28.165Z,80.70
2019-02-26T20:00:55.743Z,80.80
2019-02-26T20:03:23.219Z,81.40
2019-02-26T20:05:50.775Z,82.90
2019-02-26T20:08:18.665Z,83.70
2019-02-26T20:10:48.744Z,84.80
2019-02-26T20:13:17.938Z,84.60
2019-02-26T20:15:45.433Z,84.40
2019-02-26T20:18:20.607Z,84.60
2019-02-26T20:20:45.665Z,85.20
2019-02-26T20:23:12.958Z,85.70
2019-02-26T20:25:42.470Z,86.40
2019-02-26T20:28:11.118Z,86.40
2019-02-26T20:30:38.659Z,86.50
2019-02-26T20:33:06.759Z,86.30
2019-02-26T20:35:34.829Z,87.20
2019-02-26T20:38:02.322Z,87.80
2019-02-26T20:40:29.913Z,88.90
2019-02-26T20:43:01.334Z,89.20
2019-02-26T20:45:26.716Z,89.60
2019-02-26T20:47:54.202Z,90.30
2019-02-26T20:50:23.400Z,90.50
2019-02-26T20:52:51.019Z,90.00
2019-02-26T20:55:19.254Z,90.10
2019-02-26T20:57:47.407Z,89.60
2019-02-26T21:00:16.176Z,90.10
2019-02-26T21:02:43.674Z,90.50
2019-02-26T21:05:11.309Z,90.10
2019-02-26T21:07:39.085Z,90.40
2019-02-26T21:10:07.513Z,90.90
2019-02-26T21:12:34.994Z,90.20
2019-02-26T21:15:02.721Z,90.20
2019-02-26T21:17:30.183Z,90.00
2019-02-26T21:19:57.722Z,90.10
2019-02-26T21:22:25.268Z,90.30
2019-02-26T21:24:52.767Z,90.40
2019-02-26T21:27:20.294Z,90.20
2019-02-26T21:29:47.766Z,90.80
2019-02-26T21:32:15.429Z,91.10
2019-02-26T21:34:42.998Z,91.40
2019-02-26T21:37:10.503Z,91.20
2019-02-26T21:39:37.979Z,91.40
2019-02-26T21:42:05.455Z,91.50
2019-02-26T21:44:32.948Z,91.60
2019-02-26T21:47:00.450Z,91.70
2019-02-26T21:49:27.914Z,91.70
2019-02-26T21:51:55.412Z,91.60
2019-02-26T21:54:24.813Z,91.30
2019-02-26T21:56:52.252Z,91.50
2019-02-26T21:59:19.707Z,91.30
2019-02-26T22:01:47.356Z,91.80
2019-02-26T22:04:14.908Z,91.40
2019-02-26T22:06:44.482Z,91.30
2019-02-26T22:09:12.086Z,91.40
2019-02-26T22:11:39.583Z,91.40
2019-02-26T22:14:07.109Z,91.80
2019-02-26T22:16:34.593Z,92.10
2019-02-26T22:19:02.165Z,92.40
2019-02-26T22:21:31.352Z,92.50
2019-02-26T22:23:58.859Z,92.70
2019-02-26T22:26:26.597Z,92.90
2019-02-26T22:28:54.165Z,92.70
2019-02-26T22:31:21.637Z,93.20
2019-02-26T22:33:49.519Z,93.00
2019-02-26T22:36:17.019Z,93.20
2019-02-26T22:38:46.146Z,93.20
2019-02-26T22:41:14.174Z,93.00
2019-02-26T22:43:41.628Z,93.40
2019-02-26T22:46:09.169Z,93.30
2019-02-26T22:48:36.959Z,93.20
2019-02-26T22:51:04.858Z,93.00
2019-02-26T22:53:36.420Z,93.00
2019-02-26T22:56:01.673Z,93.10
2019-02-26T22:58:29.425Z,92.90
2019-02-26T23:01:19.526Z,92.90
2019-02-26T23:03:47.047Z,92.90
2019-02-26T23:06:14.981Z,93.40
2019-02-26T23:08:44.869Z,93.30
2019-02-26T23:11:13.399Z,93.20
2019-02-26T23:13:41.114Z,93.50
2019-02-26T23:16:08.691Z,93.10
2019-02-26T23:18:36.235Z,93.20
2019-02-26T23:21:03.846Z,93.10
2019-02-26T23:23:31.301Z,93.00
2019-02-26T23:25:58.780Z,93.20
2019-02-26T23:28:26.275Z,93.60
2019-02-26T23:30:54.115Z,93.60
2019-02-26T23:33:21.651Z,93.80
2019-02-26T23:35:49.178Z,94.10
2019-02-26T23:38:16.672Z,94.10
2019-02-26T23:40:44.167Z,94.30
2019-02-26T23:43:12.469Z,94.60
2019-02-26T23:45:40.277Z,94.90
2019-02-26T23:48:08.700Z,95.00
2019-02-26T23:50:36.343Z,95.30
2019-02-26T23:53:03.931Z,95.30
2019-02-26T23:55:31.380Z,95.60
2019-02-26T23:57:58.862Z,95.50
